Time,TemperatureF,DewpointF,PressureIn,WindDirection,WindDirectionDegrees,WindSpeedMPH,WindSpeedGustMPH,Humidity,HourlyPrecipIn,Conditions,Clouds,dailyrainin,SoftwareType,DateUTC
2013-08-04 00:06:00,57.0,52.5,29.89,SSW,212,0.0,0.0,85,0.00,,---,0.00,VWS V14.01,2013-08-04 07:06:00,
2013-08-04 00:11:00,56.9,52.4,29.89,SSW,212,0.0,0.0,85,0.00,,---,0.00,VWS V14.01,2013-08-04 07:11:00,
2013-08-04 00:36:00,56.3,51.9,29.89,SSW,212,0.0,0.0,85,0.00,,---,0.00,VWS V14.01,2013-08-04 07:36:00,
2013-08-04 00:46:00,56.0,51.6,29.88,SSW,212,0.0,0.0,85,0.00,,---,0.00,VWS V14.01,2013-08-04 07:46:00,
2013-08-04 01:06:00,55.6,51.2,29.89,SSW,212,0.0,0.0,85,0.00,,---,0.00,VWS V14.01,2013-08-04 08:06:00,
2013-08-04 01:11:00,55.4,51.0,29.89,SSW,212,0.0,0.0,85,0.00,,---,0.00,VWS V14.01,2013-08-04 08:11:00,
2013-08-04 01:16:00,55.3,51.2,29.89,SSW,212,0.0,0.0,86,0.00,,---,0.00,VWS V14.01,2013-08-04 08:16:00,
2013-08-04 01:21:00,55.3,51.2,29.89,SSW,212,0.0,0.0,86,0.00,,---,0.00,VWS V14.01,2013-08-04 08:21:00,
2013-08-04 01:26:00,55.1,51.0,29.89,SSW,212,0.0,0.0,86,0.00,,---,0.00,VWS V14.01,2013-08-04 08:26:00,
2013-08-04 01:31:00,55.0,50.9,29.89,SSW,212,0.0,0.0,86,0.00,,---,0.00,VWS V14.01,2013-08-04 08:31:00,
2013-08-04 01:36:00,54.8,50.7,29.89,SSW,212,0.0,0.0,86,0.00,,---,0.00,VWS V14.01,2013-08-04 08:36:00,
2013-08-04 01:46:00,54.7,50.6,29.89,SSW,212,0.0,0.0,86,0.00,,---,0.00,VWS V14.01,2013-08-04 08:46:00,
2013-08-04 01:56:00,54.4,50.3,29.89,SSW,212,0.0,0.0,86,0.00,,---,0.00,VWS V14.01,2013-08-04 08:56:00,
2013-08-04 02:11:00,54.1,50.0,29.89,SSW,212,0.0,0.0,86,0.00,,---,0.00,VWS V14.01,2013-08-04 09:11:00,
2013-08-04 02:21:00,53.8,49.7,29.89,SSW,212,0.0,0.0,86,0.00,,---,0.00,VWS V14.01,2013-08-04 09:21:00,
2013-08-04 02:26:00,53.6,49.5,29.89,SSW,212,0.0,0.0,86,0.00,,---,0.00,VWS V14.01,2013-08-04 09:26:00,
2013-08-04 02:31:00,53.6,49.5,29.89,SSW,212,0.0,0.0,86,0.00,,---,0.00,VWS V14.01,2013-08-04 09:31:00,
2013-08-04 02:36:00,53.5,49.4,29.89,SSW,212,0.0,0.0,86,0.00,,---,0.00,VWS V14.01,2013-08-04 09:36:00,
2013-08-04 02:41:00,53.5,49.7,29.89,SSW,212,0.0,0.0,87,0.00,,---,0.00,VWS V14.01,2013-08-04 09:41:00,
2013-08-04 02:51:00,53.3,49.5,29.88,SSW,212,0.0,0.0,87,0.00,,---,0.00,VWS V14.01,2013-08-04 09:51:00,
2013-08-04 02:56:00,53.3,49.5,29.88,SSW,212,0.0,0.0,87,0.00,,---,0.00,VWS V14.01,2013-08-04 09:56:00,
2013-08-04 03:11:00,53.9,50.4,29.88,SSW,212,0.0,0.0,88,0.00,,---,0.00,VWS V14.01,2013-08-04 10:11:00,
2013-08-04 03:16:00,53.9,50.4,29.87,SSW,212,0.0,0.0,88,0.00,,---,0.00,VWS V14.01,2013-08-04 10:16:00,
2013-08-04 03:21:00,54.2,51.0,29.87,SSW,212,0.0,0.0,89,0.00,,---,0.00,VWS V14.01,2013-08-04 10:21:00,
2013-08-04 03:31:00,55.1,51.9,29.87,SSW,212,0.0,0.0,89,0.00,,---,0.00,VWS V14.01,2013-08-04 10:31:00,
2013-08-04 03:41:00,55.6,52.4,29.87,SSW,212,0.0,0.0,89,0.00,,---,0.00,VWS V14.01,2013-08-04 10:41:00,
2013-08-04 04:01:00,56.7,53.8,29.87,SSW,212,0.0,0.0,90,0.00,,---,0.00,VWS V14.01,2013-08-04 11:01:00,
2013-08-04 04:16:00,56.9,54.3,29.87,SSW,212,0.0,0.0,91,0.00,,---,0.00,VWS V14.01,2013-08-04 11:16:00,
2013-08-04 04:21:00,56.9,54.3,29.87,SSW,212,0.0,0.0,91,0.00,,---,0.00,VWS V14.01,2013-08-04 11:21:00,
2013-08-04 04:31:00,56.9,54.3,29.87,SSW,212,0.0,0.0,91,0.00,,---,0.00,VWS V14.01,2013-08-04 11:31:00,
2013-08-04 04:41:00,56.9,54.3,29.87,SSW,212,0.0,0.0,91,0.00,,---,0.00,VWS V14.01,2013-08-04 11:41:00,
2013-08-04 04:56:00,56.9,54.3,29.87,SSW,212,0.0,0.0,91,0.00,,---,0.00,VWS V14.01,2013-08-04 11:56:00,
2013-08-04 05:06:00,56.9,54.6,29.88,SSW,212,0.0,0.0,92,0.00,,---,0.00,VWS V14.01,2013-08-04 12:06:00,
2013-08-04 05:16:00,56.9,54.6,29.88,SSW,212,0.0,0.0,92,0.00,,---,0.00,VWS V14.01,2013-08-04 12:16:00,
2013-08-04 05:26:00,56.7,54.4,29.88,SSW,212,0.0,0.0,92,0.00,,---,0.00,VWS V14.01,2013-08-04 12:26:00,
2013-08-04 05:36:00,56.6,54.3,29.88,SSW,212,0.0,0.0,92,0.00,,---,0.00,VWS V14.01,2013-08-04 12:36:00,
2013-08-04 05:51:00,56.5,54.2,29.88,SSW,212,0.0,0.0,92,0.00,,---,0.00,VWS V14.01,2013-08-04 12:51:00,
2013-08-04 05:56:00,56.5,54.2,29.88,SSW,212,0.0,0.0,92,0.00,,---,0.00,VWS V14.01,2013-08-04 12:56:00,
2013-08-04 06:06:00,56.5,54.5,29.89,SSW,212,0.0,0.0,93,0.00,,---,0.00,VWS V14.01,2013-08-04 13:06:00,
2013-08-04 06:11:00,56.5,54.5,29.89,SSW,212,0.0,0.0,93,0.00,,---,0.00,VWS V14.01,2013-08-04 13:11:00,
2013-08-04 06:21:00,56.5,54.5,29.90,SSW,212,0.0,0.0,93,0.00,,---,0.00,VWS V14.01,2013-08-04 13:21:00,
2013-08-04 06:26:00,56.5,54.5,29.90,SSW,212,0.0,0.0,93,0.00,,---,0.00,VWS V14.01,2013-08-04 13:26:00,
2013-08-04 06:36:00,56.3,54.3,29.91,SSW,212,0.0,0.0,93,0.00,,---,0.00,VWS V14.01,2013-08-04 13:36:00,
2013-08-04 06:56:00,56.3,54.3,29.91,SSW,212,0.0,0.0,93,0.00,,---,0.00,VWS V14.01,2013-08-04 13:56:00,
2013-08-04 07:06:00,56.5,54.5,29.92,SSW,212,0.0,0.0,93,0.00,,---,0.00,VWS V14.01,2013-08-04 14:06:00,
2013-08-04 07:11:00,56.5,54.5,29.92,SSW,212,0.0,0.0,93,0.00,,---,0.00,VWS V14.01,2013-08-04 14:11:00,
2013-08-04 07:21:00,56.3,54.3,29.92,SSW,212,0.0,0.0,93,0.00,,---,0.00,VWS V14.01,2013-08-04 14:21:00,
2013-08-04 07:31:00,56.3,54.6,29.93,SSW,212,0.0,0.0,94,0.00,,---,0.00,VWS V14.01,2013-08-04 14:31:00,
2013-08-04 07:36:00,56.3,54.6,29.93,SSW,212,0.0,0.0,94,0.00,,---,0.00,VWS V14.01,2013-08-04 14:36:00,
2013-08-04 07:46:00,56.5,54.8,29.93,SSW,212,0.0,0.0,94,0.00,,---,0.00,VWS V14.01,2013-08-04 14:46:00,
2013-08-04 07:51:00,56.5,54.8,29.93,SSW,212,0.0,0.0,94,0.00,,---,0.00,VWS V14.01,2013-08-04 14:51:00,
2013-08-04 08:01:00,56.5,54.8,29.93,SSW,212,0.0,0.0,94,0.00,,---,0.00,VWS V14.01,2013-08-04 15:01:00,
2013-08-04 08:06:00,56.6,54.9,29.93,SSW,212,0.0,0.0,94,0.00,,---,0.00,VWS V14.01,2013-08-04 15:06:00,
2013-08-04 08:16:00,56.7,55.0,29.93,SSW,212,0.0,0.0,94,0.00,,---,0.00,VWS V14.01,2013-08-04 15:16:00,
2013-08-04 08:26:00,56.9,55.2,29.93,SSW,212,0.0,0.0,94,0.00,,---,0.00,VWS V14.01,2013-08-04 15:26:00,
2013-08-04 08:41:00,57.6,56.2,29.93,SSW,212,0.0,0.0,95,0.00,,---,0.00,VWS V14.01,2013-08-04 15:41:00,
2013-08-04 08:46:00,57.8,56.4,29.93,SSW,212,0.0,0.0,95,0.00,,---,0.00,VWS V14.01,2013-08-04 15:46:00,
2013-08-04 08:56:00,58.0,56.3,29.93,SSW,212,0.0,0.0,94,0.00,,---,0.00,VWS V14.01,2013-08-04 15:56:00,
2013-08-04 09:06:00,58.1,56.4,29.93,SSW,212,0.0,0.0,94,0.00,,---,0.00,VWS V14.01,2013-08-04 16:06:00,
2013-08-04 09:16:00,58.4,56.7,29.93,South,181,0.0,0.0,94,0.00,,---,0.00,VWS V14.01,2013-08-04 16:16:00,
2013-08-04 09:26:00,58.3,56.3,29.93,South,181,0.0,0.0,93,0.00,,---,0.00,VWS V14.01,2013-08-04 16:26:00,
2013-08-04 09:31:00,58.7,56.7,29.93,South,181,0.0,0.0,93,0.00,,---,0.00,VWS V14.01,2013-08-04 16:31:00,
2013-08-04 09:36:00,59.0,57.3,29.93,WSW,253,0.0,0.0,94,0.00,,---,0.00,VWS V14.01,2013-08-04 16:36:00,
2013-08-04 09:46:00,60.2,58.2,29.93,SW,220,0.0,0.0,93,0.00,,---,0.00,VWS V14.01,2013-08-04 16:46:00,
2013-08-04 10:06:00,63.4,59.8,29.93,WSW,256,0.0,0.0,88,0.00,,---,0.00,VWS V14.01,2013-08-04 17:06:00,
2013-08-04 10:16:00,64.7,59.8,29.93,SSE,161,0.0,0.0,84,0.00,,---,0.00,VWS V14.01,2013-08-04 17:16:00,
2013-08-04 10:41:00,68.1,61.0,29.93,WSW,253,0.0,0.0,78,0.00,,---,0.00,VWS V14.01,2013-08-04 17:41:00,
2013-08-04 10:46:00,68.9,60.3,29.92,WSW,241,0.0,0.0,74,0.00,,---,0.00,VWS V14.01,2013-08-04 17:46:00,
2013-08-04 10:51:00,69.8,60.8,29.92,SW,236,0.0,0.0,73,0.00,,---,0.00,VWS V14.01,2013-08-04 17:51:00,
2013-08-04 11:01:00,71.6,60.9,29.92,SSE,160,0.0,0.0,69,0.00,,---,0.00,VWS V14.01,2013-08-04 18:01:00,
2013-08-04 11:11:00,72.7,61.1,29.92,SSW,213,0.0,0.0,67,0.00,,---,0.00,VWS V14.01,2013-08-04 18:11:00,
2013-08-04 11:16:00,73.2,60.7,29.91,SSW,195,0.0,0.0,65,0.00,,---,0.00,VWS V14.01,2013-08-04 18:16:00,
2013-08-04 11:21:00,73.3,60.0,29.91,SW,233,0.0,0.0,63,0.00,,---,0.00,VWS V14.01,2013-08-04 18:21:00,
2013-08-04 11:31:00,75.3,60.5,29.90,SSW,198,0.0,0.0,60,0.00,,---,0.00,VWS V14.01,2013-08-04 18:31:00,
2013-08-04 11:36:00,75.8,60.9,29.90,SW,233,0.0,0.0,60,0.00,,---,0.00,VWS V14.01,2013-08-04 18:36:00,
2013-08-04 11:46:00,76.3,60.5,29.90,SW,220,0.0,0.0,58,0.00,,---,0.00,VWS V14.01,2013-08-04 18:46:00,
2013-08-04 11:56:00,77.2,60.3,29.90,South,182,1.0,3.0,56,0.00,,---,0.00,VWS V14.01,2013-08-04 18:56:00,
2013-08-04 12:01:00,77.9,61.0,29.90,SW,224,0.0,2.0,56,0.00,,---,0.00,VWS V14.01,2013-08-04 19:01:00,
2013-08-04 12:06:00,78.1,60.6,29.90,West,265,0.0,2.0,55,0.00,,---,0.00,VWS V14.01,2013-08-04 19:06:00,
2013-08-04 12:11:00,78.1,61.1,29.90,SSW,212,1.0,2.0,56,0.00,,---,0.00,VWS V14.01,2013-08-04 19:11:00,
2013-08-04 12:16:00,78.3,60.8,29.90,WSW,246,0.0,8.0,55,0.00,,---,0.00,VWS V14.01,2013-08-04 19:16:00,
2013-08-04 12:26:00,78.8,61.3,29.90,SSW,208,0.0,7.0,55,0.00,,---,0.00,VWS V14.01,2013-08-04 19:26:00,
2013-08-04 12:36:00,80.1,61.4,29.89,SSW,202,0.0,2.0,53,0.00,,---,0.00,VWS V14.01,2013-08-04 19:36:00,
2013-08-04 12:46:00,80.7,61.5,29.89,West,272,0.0,8.0,52,0.00,,---,0.00,VWS V14.01,2013-08-04 19:46:00,
2013-08-04 12:56:00,80.3,61.6,29.89,SW,217,0.0,6.0,53,0.00,,---,0.00,VWS V14.01,2013-08-04 19:56:00,
2013-08-04 13:01:00,81.1,61.8,29.88,SW,215,0.0,7.0,52,0.00,,---,0.00,VWS V14.01,2013-08-04 20:01:00,
2013-08-04 13:06:00,81.2,61.9,29.88,SSW,213,0.0,11.0,52,0.00,,---,0.00,VWS V14.01,2013-08-04 20:06:00,
2013-08-04 13:21:00,81.6,61.7,29.88,West,263,0.0,8.0,51,0.00,,---,0.00,VWS V14.01,2013-08-04 20:21:00,
2013-08-04 13:31:00,81.4,62.1,29.88,SW,219,6.0,8.0,52,0.00,,---,0.00,VWS V14.01,2013-08-04 20:31:00,
2013-08-04 13:41:00,82.0,62.1,29.88,South,188,2.0,6.0,51,0.00,,---,0.00,VWS V14.01,2013-08-04 20:41:00,
2013-08-04 13:51:00,82.0,62.1,29.88,SSW,200,3.0,8.0,51,0.00,,---,0.00,VWS V14.01,2013-08-04 20:51:00,
2013-08-04 14:06:00,82.0,61.5,29.88,SW,236,0.0,10.0,50,0.00,,---,0.00,VWS V14.01,2013-08-04 21:06:00,
2013-08-04 14:11:00,81.8,61.4,29.88,SW,230,0.0,5.0,50,0.00,,---,0.00,VWS V14.01,2013-08-04 21:11:00,
2013-08-04 14:21:00,82.4,61.3,29.88,SW,234,2.0,10.0,49,0.00,,---,0.00,VWS V14.01,2013-08-04 21:21:00,
2013-08-04 14:31:00,82.6,60.9,29.88,WSW,246,6.0,8.0,48,0.00,,---,0.00,VWS V14.01,2013-08-04 21:31:00,
2013-08-04 14:41:00,82.0,61.0,29.88,West,278,0.0,8.0,49,0.00,,---,0.00,VWS V14.01,2013-08-04 21:41:00,
2013-08-04 14:46:00,82.4,61.3,29.88,WSW,253,0.0,9.0,49,0.00,,---,0.00,VWS V14.01,2013-08-04 21:46:00,
2013-08-04 14:51:00,82.6,60.9,29.88,SW,233,5.0,8.0,48,0.00,,---,0.00,VWS V14.01,2013-08-04 21:51:00,
2013-08-04 14:56:00,82.4,60.8,29.88,West,268,5.0,7.0,48,0.00,,---,0.00,VWS V14.01,2013-08-04 21:56:00,
2013-08-04 15:06:00,82.0,62.1,29.87,SSW,196,0.0,9.0,51,0.00,,---,0.00,VWS V14.01,2013-08-04 22:06:00,
2013-08-04 15:16:00,82.4,61.3,29.87,SW,234,1.0,6.0,49,0.00,,---,0.00,VWS V14.01,2013-08-04 22:16:00,
2013-08-04 15:21:00,82.4,61.9,29.87,SSW,202,2.0,6.0,50,0.00,,---,0.00,VWS V14.01,2013-08-04 22:21:00,
2013-08-04 15:31:00,83.4,61.1,29.86,WSW,247,0.0,10.0,47,0.00,,---,0.00,VWS V14.01,2013-08-04 22:31:00,
2013-08-04 18:18:00,79.4,59.2,29.84,West,270,1.0,5.0,50,0.00,,---,0.00,VWS V14.01,2013-08-05 01:18:00,
2013-08-04 18:26:00,78.3,58.2,29.84,WSW,243,0.0,2.0,50,0.00,,---,0.00,VWS V14.01,2013-08-05 01:26:00,
2013-08-04 18:31:00,77.9,58.9,29.84,WSW,243,0.0,0.0,52,0.00,,---,0.00,VWS V14.01,2013-08-05 01:31:00,
2013-08-04 18:36:00,77.4,59.0,29.84,WSW,243,0.0,0.0,53,0.00,,---,0.00,VWS V14.01,2013-08-05 01:36:00,
2013-08-04 18:41:00,76.8,58.9,29.84,WSW,243,0.0,0.0,54,0.00,,---,0.00,VWS V14.01,2013-08-05 01:41:00,
2013-08-04 18:46:00,76.3,58.5,29.84,WSW,243,0.0,0.0,54,0.00,,---,0.00,VWS V14.01,2013-08-05 01:46:00,
2013-08-04 18:51:00,75.6,58.8,29.84,WSW,243,0.0,0.0,56,0.00,,---,0.00,VWS V14.01,2013-08-05 01:51:00,
2013-08-04 19:01:00,74.4,58.7,29.84,WSW,243,0.0,0.0,58,0.00,,---,0.00,VWS V14.01,2013-08-05 02:01:00,
2013-08-04 19:06:00,73.9,59.2,29.84,WSW,243,0.0,0.0,60,0.00,,---,0.00,VWS V14.01,2013-08-05 02:06:00,
2013-08-04 19:11:00,73.0,58.8,29.84,WSW,243,0.0,0.0,61,0.00,,---,0.00,VWS V14.01,2013-08-05 02:11:00,
2013-08-04 19:16:00,72.5,59.2,29.85,WSW,243,0.0,0.0,63,0.00,,---,0.00,VWS V14.01,2013-08-05 02:16:00,
2013-08-04 19:26:00,71.3,58.5,29.85,WSW,243,0.0,0.0,64,0.00,,---,0.00,VWS V14.01,2013-08-05 02:26:00,
2013-08-04 19:36:00,70.6,58.7,29.86,WSW,243,0.0,0.0,66,0.00,,---,0.00,VWS V14.01,2013-08-05 02:36:00,
2013-08-04 19:51:00,69.3,58.3,29.86,WSW,243,0.0,0.0,68,0.00,,---,0.00,VWS V14.01,2013-08-05 02:51:00,
2013-08-04 19:56:00,68.9,57.9,29.86,WSW,243,0.0,0.0,68,0.00,,---,0.00,VWS V14.01,2013-08-05 02:56:00,
2013-08-04 20:01:00,68.8,57.8,29.86,WSW,243,0.0,0.0,68,0.00,,---,0.00,VWS V14.01,2013-08-05 03:01:00,
2013-08-04 20:06:00,68.4,57.4,29.86,WSW,243,0.0,0.0,68,0.00,,---,0.00,VWS V14.01,2013-08-05 03:06:00,
2013-08-04 20:16:00,67.8,57.3,29.87,WSW,243,0.0,0.0,69,0.00,,---,0.00,VWS V14.01,2013-08-05 03:16:00,
2013-08-04 20:21:00,67.4,57.3,29.87,WSW,243,0.0,0.0,70,0.00,,---,0.00,VWS V14.01,2013-08-05 03:21:00,
2013-08-04 20:26:00,67.1,57.4,29.87,WSW,243,0.0,0.0,71,0.00,,---,0.00,VWS V14.01,2013-08-05 03:26:00,
2013-08-04 20:36:00,66.1,56.8,29.88,WSW,243,0.0,0.0,72,0.00,,---,0.00,VWS V14.01,2013-08-05 03:36:00,
2013-08-04 20:46:00,65.6,56.3,29.88,WSW,243,0.0,0.0,72,0.00,,---,0.00,VWS V14.01,2013-08-05 03:46:00,
2013-08-04 20:51:00,65.3,56.0,29.88,WSW,243,0.0,0.0,72,0.00,,---,0.00,VWS V14.01,2013-08-05 03:51:00,
2013-08-04 21:01:00,64.7,56.2,29.89,WSW,243,0.0,0.0,74,0.00,,---,0.00,VWS V14.01,2013-08-05 04:01:00,
2013-08-04 21:11:00,64.0,55.6,29.89,WSW,243,0.0,0.0,74,0.00,,---,0.00,VWS V14.01,2013-08-05 04:11:00,
2013-08-04 21:21:00,63.4,55.3,29.89,WSW,243,0.0,0.0,75,0.00,,---,0.00,VWS V14.01,2013-08-05 04:21:00,
2013-08-04 21:36:00,62.6,55.3,29.89,WSW,243,0.0,0.0,77,0.00,,---,0.00,VWS V14.01,2013-08-05 04:36:00,
2013-08-04 21:46:00,62.1,54.8,29.90,WSW,243,0.0,0.0,77,0.00,,---,0.00,VWS V14.01,2013-08-05 04:46:00,
2013-08-04 21:56:00,61.5,54.6,29.90,WSW,243,0.0,0.0,78,0.00,,---,0.00,VWS V14.01,2013-08-05 04:56:00,
2013-08-04 22:01:00,61.3,54.7,29.90,WSW,243,0.0,0.0,79,0.00,,---,0.00,VWS V14.01,2013-08-05 05:01:00,
2013-08-04 22:11:00,60.7,54.5,29.90,WSW,243,0.0,0.0,80,0.00,,---,0.00,VWS V14.01,2013-08-05 05:11:00,
2013-08-04 22:21:00,60.2,54.0,29.89,WSW,243,0.0,0.0,80,0.00,,---,0.00,VWS V14.01,2013-08-05 05:21:00,
2013-08-04 22:26:00,60.1,53.9,29.89,WSW,243,0.0,0.0,80,0.00,,---,0.00,VWS V14.01,2013-08-05 05:26:00,
2013-08-04 22:31:00,59.9,54.1,29.89,WSW,243,0.0,0.0,81,0.00,,---,0.00,VWS V14.01,2013-08-05 05:31:00,
2013-08-04 22:36:00,59.8,54.0,29.89,WSW,243,0.0,0.0,81,0.00,,---,0.00,VWS V14.01,2013-08-05 05:36:00,
2013-08-04 22:41:00,59.5,53.7,29.89,WSW,243,0.0,0.0,81,0.00,,---,0.00,VWS V14.01,2013-08-05 05:41:00,
2013-08-04 22:46:00,59.3,53.5,29.89,WSW,243,0.0,0.0,81,0.00,,---,0.00,VWS V14.01,2013-08-05 05:46:00,
2013-08-04 23:01:00,58.9,53.1,29.89,WSW,243,0.0,0.0,81,0.00,,---,0.00,VWS V14.01,2013-08-05 06:01:00,
2013-08-04 23:06:00,58.7,53.2,29.89,WSW,243,0.0,0.0,82,0.00,,---,0.00,VWS V14.01,2013-08-05 06:06:00,
2013-08-04 23:16:00,58.4,52.9,29.89,WSW,243,0.0,0.0,82,0.00,,---,0.00,VWS V14.01,2013-08-05 06:16:00,
2013-08-04 23:21:00,58.3,52.8,29.89,WSW,243,0.0,0.0,82,0.00,,---,0.00,VWS V14.01,2013-08-05 06:21:00,
2013-08-04 23:26:00,58.1,52.6,29.89,WSW,243,0.0,0.0,82,0.00,,---,0.00,VWS V14.01,2013-08-05 06:26:00,
2013-08-04 23:36:00,57.8,52.3,29.89,WSW,243,0.0,0.0,82,0.00,,---,0.00,VWS V14.01,2013-08-05 06:36:00,
2013-08-04 23:41:00,57.6,52.2,29.89,WSW,243,0.0,0.0,82,0.00,,---,0.00,VWS V14.01,2013-08-05 06:41:00,
2013-08-04 23:46:00,57.5,52.1,29.89,WSW,243,0.0,0.0,82,0.00,,---,0.00,VWS V14.01,2013-08-05 06:46:00,